createdAt,value
2022-08-08T00:02:04.293Z,102560.66
2022-08-08T00:12:10.683Z,102542.53
2022-08-08T00:22:41.617Z,102549.09
2022-08-08T00:33:21.387Z,102533.09
2022-08-08T00:44:03.235Z,102525.34
2022-08-08T00:54:19.924Z,102531.81
2022-08-08T01:05:03.876Z,102532.53
2022-08-08T01:15:47.366Z,102526.72
2022-08-08T01:26:20.001Z,102526.09
2022-08-08T01:37:05.846Z,102530.19
2022-08-08T01:48:14.716Z,102540.28
2022-08-08T01:58:38.204Z,102545.63
2022-08-08T02:09:01.641Z,102539.66
2022-08-08T02:19:57.464Z,102545.72
2022-08-08T02:30:04.950Z,102550.28
2022-08-08T02:40:19.896Z,102539.81
2022-08-08T02:51:04.925Z,102562.78
2022-08-08T03:01:39.908Z,102557.75
2022-08-08T03:12:14.152Z,102559.88
2022-08-08T03:22:38.626Z,102569.75
2022-08-08T03:32:41.548Z,102570.88
2022-08-08T03:42:44.115Z,102566.63
2022-08-08T03:52:51.568Z,102571.59
2022-08-08T04:03:01.573Z,102578.47
2022-08-08T04:13:17.605Z,102580.38
2022-08-08T04:23:23.099Z,102590.88
2022-08-08T04:33:26.885Z,102585.00
2022-08-08T04:43:32.022Z,102585.09
2022-08-08T04:54:38.757Z,102585.81
2022-08-08T05:04:14.013Z,102581.34
2022-08-08T05:14:20.547Z,102590.25
2022-08-08T05:24:26.292Z,102594.47
2022-08-08T05:34:36.483Z,102599.13
2022-08-08T05:44:45.458Z,102603.78
2022-08-08T05:54:50.217Z,102602.06
2022-08-08T06:04:56.312Z,102603.81
2022-08-08T06:15:03.261Z,102613.53
2022-08-08T06:25:08.706Z,102612.34
2022-08-08T06:36:06.994Z,102622.91
2022-08-08T06:45:40.125Z,102624.88
2022-08-08T06:55:44.202Z,102626.31
2022-08-08T07:06:01.789Z,102625.16
2022-08-08T07:16:18.067Z,102628.88
2022-08-08T07:26:28.947Z,102629.91
2022-08-08T07:36:42.005Z,102643.97
2022-08-08T07:46:54.749Z,102642.06
2022-08-08T07:57:08.834Z,102651.03
2022-08-08T08:07:13.128Z,102651.69
2022-08-08T08:17:19.005Z,102664.63
2022-08-08T08:27:23.479Z,102674.97
2022-08-08T08:37:30.213Z,102671.81
2022-08-08T08:47:44.717Z,102684.94
2022-08-08T08:57:50.189Z,102697.16
2022-08-08T09:08:12.902Z,102694.34
2022-08-08T09:18:18.136Z,102697.53
2022-08-08T09:28:35.582Z,102704.00
2022-08-08T09:38:54.162Z,102686.47
2022-08-08T09:49:18.391Z,102701.22
2022-08-08T09:59:57.126Z,102693.91
2022-08-08T10:09:58.743Z,102690.50
2022-08-08T10:20:04.404Z,102694.41
2022-08-08T10:30:06.727Z,102684.25
2022-08-08T10:40:19.789Z,102672.00
2022-08-08T10:50:23.709Z,102676.22
2022-08-08T11:00:27.022Z,102677.31
2022-08-08T11:10:29.616Z,102677.22
2022-08-08T11:20:31.263Z,102664.59
2022-08-08T11:30:33.270Z,102668.44
2022-08-08T11:40:35.131Z,102663.22
2022-08-08T11:50:38.035Z,102664.13
2022-08-08T12:00:47.703Z,102663.53
2022-08-08T12:10:51.540Z,102665.63
2022-08-08T12:20:54.929Z,102662.16
2022-08-08T12:31:08.681Z,102662.72
2022-08-08T12:41:18.266Z,102659.19
2022-08-08T12:51:49.943Z,102653.22
2022-08-08T13:02:01.766Z,102651.56
2022-08-08T13:12:28.085Z,102647.09
2022-08-08T13:22:34.729Z,102645.25
2022-08-08T13:32:39.686Z,102652.28
2022-08-08T13:42:41.952Z,102652.47
2022-08-08T13:52:49.390Z,102652.97
2022-08-08T14:02:59.271Z,102661.66
2022-08-08T14:13:02.242Z,102655.41
2022-08-08T14:23:10.340Z,102653.38
2022-08-08T14:33:27.464Z,102667.94
2022-08-08T14:44:09.974Z,102665.31
2022-08-08T14:54:10.742Z,102658.72
2022-08-08T15:04:13.382Z,102651.25
2022-08-08T15:14:14.857Z,102656.22
2022-08-08T15:24:17.006Z,102643.56
2022-08-08T15:34:31.741Z,102659.41
2022-08-08T15:44:33.762Z,102658.22
2022-08-08T15:54:38.317Z,102655.75
2022-08-08T16:04:41.865Z,102662.88
2022-08-08T16:14:52.714Z,102660.00
2022-08-08T16:24:55.708Z,102650.31
2022-08-08T16:35:00.662Z,102652.13
2022-08-08T16:45:11.351Z,102654.94
2022-08-08T16:55:52.577Z,102660.34
2022-08-08T17:05:46.685Z,102661.97
2022-08-08T17:15:52.867Z,102664.25
2022-08-08T17:25:54.736Z,102674.22
2022-08-08T17:36:13.889Z,102683.56
2022-08-08T17:46:39.527Z,102683.03
2022-08-08T17:56:42.875Z,102686.72
2022-08-08T18:06:45.115Z,102691.91
2022-08-08T18:16:52.592Z,102698.44
2022-08-08T18:26:57.496Z,102708.13
2022-08-08T18:36:59.034Z,102716.09
2022-08-08T18:47:01.317Z,102726.69
2022-08-08T18:57:03.955Z,102730.13
2022-08-08T19:07:10.335Z,102742.75
2022-08-08T19:17:11.896Z,102754.63
2022-08-08T19:27:55.725Z,102764.38
2022-08-08T19:37:55.294Z,102763.72
2022-08-08T19:47:59.312Z,102766.22
2022-08-08T19:58:01.517Z,102760.50
2022-08-08T20:08:28.396Z,102777.56
2022-08-08T20:18:29.621Z,102790.41
2022-08-08T20:28:38.915Z,102795.34
2022-08-08T20:38:45.839Z,102805.91
2022-08-08T20:48:51.862Z,102810.75
2022-08-08T20:58:53.279Z,102811.59
2022-08-08T21:08:55.260Z,102817.81
2022-08-08T21:18:59.232Z,102819.66
2022-08-08T21:29:02.456Z,102820.88
2022-08-08T21:39:04.202Z,102820.66
2022-08-08T21:49:07.925Z,102823.09
2022-08-08T21:59:10.001Z,102821.41
2022-08-08T22:09:11.507Z,102841.50
2022-08-08T22:19:16.305Z,102843.03
2022-08-08T22:29:57.758Z,102833.59
2022-08-08T22:39:46.215Z,102843.78
2022-08-08T22:50:01.149Z,102857.63
2022-08-08T23:00:03.294Z,102847.41
2022-08-08T23:10:08.132Z,102860.50
2022-08-08T23:20:10.102Z,102861.31
2022-08-08T23:30:13.745Z,102868.88
2022-08-08T23:40:15.877Z,102869.00
2022-08-08T23:50:30.667Z,102872.25
